Time;durP1;ratioP1;P1;durP2;ratioP2;P2;SDS_P1;SDS_P2;PMS_P1;PMS_P2;Temp;Humidity;BMP_temperature;BMP_pressure;BME280_temperature;BME280_humidity;BME280_pressure;Samples;Min_cycle;Max_cycle;Signal;HPM_P1;HPM_P2
2022/08/07 00:01:21;;;;;;;21.35;11.85;;;;;;;;;;5035300;28;20478;-78
2022/08/07 00:03:47;;;;;;;18.58;11.65;;;;;;;;;;5037349;28;20033;-76
2022/08/07 00:06:13;;;;;;;18.40;11.32;;;;;;;;;;5039612;28;20044;-80
2022/08/07 00:08:39;;;;;;;17.40;10.77;;;;;;;;;;5045882;28;20033;-77
2022/08/07 00:11:06;;;;;;;20.33;11.73;;;;;;;;;;5035697;28;20026;-77
2022/08/07 00:13:32;;;;;;;19.80;11.40;;;;;;;;;;5035133;28;20025;-76
2022/08/07 00:15:58;;;;;;;19.85;11.32;;;;;;;;;;5032310;28;20044;-77
2022/08/07 00:18:26;;;;;;;17.95;11.25;;;;;;;;;;5033583;28;20060;-76
2022/08/07 00:20:53;;;;;;;19.85;11.57;;;;;;;;;;5033991;28;20116;-77
2022/08/07 00:23:19;;;;;;;19.67;11.07;;;;;;;;;;5033703;28;20029;-78
2022/08/07 00:25:45;;;;;;;23.85;11.43;;;;;;;;;;5033449;28;20029;-77
2022/08/07 00:28:11;;;;;;;17.00;10.23;;;;;;;;;;5033582;28;20029;-76
2022/08/07 00:30:37;;;;;;;20.35;10.43;;;;;;;;;;5033032;28;20177;-77
2022/08/07 00:33:03;;;;;;;20.30;10.70;;;;;;;;;;5033349;28;20037;-77
2022/08/07 00:35:29;;;;;;;17.33;10.80;;;;;;;;;;5033126;28;20025;-77
2022/08/07 00:37:55;;;;;;;22.55;11.10;;;;;;;;;;5032610;28;20040;-77
2022/08/07 00:40:21;;;;;;;19.40;10.50;;;;;;;;;;5032537;28;20022;-78
2022/08/07 00:42:47;;;;;;;13.90;9.85;;;;;;;;;;5033903;28;20028;-79
2022/08/07 00:45:13;;;;;;;17.67;10.90;;;;;;;;;;5035780;28;20029;-78
2022/08/07 00:47:39;;;;;;;18.05;10.55;;;;;;;;;;5034195;28;20025;-78
2022/08/07 00:50:06;;;;;;;17.45;11.52;;;;;;;;;;5037390;28;20022;-78
2022/08/07 00:52:32;;;;;;;20.65;11.55;;;;;;;;;;5036969;28;20041;-78
2022/08/07 00:54:58;;;;;;;15.48;10.10;;;;;;;;;;5037292;28;20017;-77
2022/08/07 00:57:25;;;;;;;18.20;11.27;;;;;;;;;;5038393;28;20032;-79
2022/08/07 00:59:51;;;;;;;14.48;9.32;;;;;;;;;;5040554;28;20087;-78
2022/08/07 01:02:17;;;;;;;19.67;9.73;;;;;;;;;;5037738;28;20468;-77
2022/08/07 01:04:43;;;;;;;16.88;10.43;;;;;;;;;;5037890;28;20029;-78
2022/08/07 01:07:09;;;;;;;22.30;10.27;;;;;;;;;;5048506;28;20021;-78
2022/08/07 01:09:35;;;;;;;16.35;10.77;;;;;;;;;;5051823;28;20025;-78
2022/08/07 01:12:01;;;;;;;17.98;11.40;;;;;;;;;;5050680;28;20029;-81
2022/08/07 01:14:27;;;;;;;17.23;11.18;;;;;;;;;;5033965;28;20060;-77
2022/08/07 01:16:54;;;;;;;15.48;10.55;;;;;;;;;;5032567;28;20077;-76
2022/08/07 01:19:21;;;;;;;27.50;15.27;;;;;;;;;;5032983;28;20021;-77
2022/08/07 01:21:48;;;;;;;24.58;11.60;;;;;;;;;;5033031;28;20026;-78
2022/08/07 01:24:15;;;;;;;14.40;9.85;;;;;;;;;;5033854;28;20034;-78
2022/08/07 01:26:41;;;;;;;19.90;10.82;;;;;;;;;;5033980;28;20032;-78
2022/08/07 01:29:07;;;;;;;21.77;11.40;;;;;;;;;;5035091;28;20029;-77
2022/08/07 01:31:33;;;;;;;18.52;11.38;;;;;;;;;;5032556;28;20171;-78
2022/08/07 01:33:59;;;;;;;18.75;10.68;;;;;;;;;;5032945;28;20037;-78
2022/08/07 01:36:27;;;;;;;17.63;10.77;;;;;;;;;;5033259;28;20037;-79
2022/08/07 01:38:53;;;;;;;15.23;9.63;;;;;;;;;;5032826;28;20467;-77
2022/08/07 01:41:19;;;;;;;14.05;9.63;;;;;;;;;;5031218;28;20108;-79
2022/08/07 01:43:45;;;;;;;16.55;9.45;;;;;;;;;;5033428;28;20180;-77
2022/08/07 01:46:11;;;;;;;13.40;9.10;;;;;;;;;;5032851;28;20093;-78
2022/08/07 01:48:38;;;;;;;12.52;8.75;;;;;;;;;;5032733;28;20375;-77
2022/08/07 01:51:06;;;;;;;15.85;9.68;;;;;;;;;;5030959;28;20116;-79
2022/08/07 01:53:37;;;;;;;15.40;9.88;;;;;;;;;;5032806;28;20045;-77
2022/08/07 01:56:08;;;;;;;16.27;9.57;;;;;;;;;;5032800;28;20232;-77
2022/08/07 01:58:37;;;;;;;16.30;9.13;;;;;;;;;;5033466;28;20052;-78
2022/08/07 02:01:07;;;;;;;18.73;9.65;;;;;;;;;;5032244;28;20064;-78
2022/08/07 02:03:34;;;;;;;16.70;9.98;;;;;;;;;;5033449;28;20048;-78
2022/08/07 02:06:03;;;;;;;15.15;9.80;;;;;;;;;;5033281;28;20037;-77
2022/08/07 02:08:30;;;;;;;15.90;9.15;;;;;;;;;;5041053;28;20025;-78
2022/08/07 02:10:58;;;;;;;16.17;9.23;;;;;;;;;;5037854;28;20034;-78
2022/08/07 02:13:25;;;;;;;12.63;8.32;;;;;;;;;;5039204;28;20471;-78
2022/08/07 02:15:52;;;;;;;12.18;8.00;;;;;;;;;;5035418;28;20026;-78
2022/08/07 02:18:19;;;;;;;13.30;8.23;;;;;;;;;;5037935;28;20387;-77
2022/08/07 02:20:45;;;;;;;13.23;8.73;;;;;;;;;;5036608;28;20073;-80
2022/08/07 02:23:11;;;;;;;13.95;8.45;;;;;;;;;;5036633;28;20033;-78
2022/08/07 02:25:38;;;;;;;14.10;7.90;;;;;;;;;;5035697;28;20025;-77
2022/08/07 02:28:05;;;;;;;13.38;7.68;;;;;;;;;;5034234;28;20029;-78
2022/08/07 02:30:32;;;;;;;11.75;7.43;;;;;;;;;;5038070;28;20112;-78
2022/08/07 02:32:59;;;;;;;11.25;8.05;;;;;;;;;;5037809;28;20100;-79
2022/08/07 02:35:25;;;;;;;13.65;7.97;;;;;;;;;;5037022;28;20026;-78
2022/08/07 02:37:51;;;;;;;20.27;8.85;;;;;;;;;;5038874;28;20025;-78
2022/08/07 02:40:17;;;;;;;13.75;8.07;;;;;;;;;;5039718;28;20026;-78
2022/08/07 02:42:44;;;;;;;16.00;8.15;;;;;;;;;;5039106;28;20467;-78
2022/08/07 02:45:11;;;;;;;12.27;7.70;;;;;;;;;;5039230;28;20025;-77
2022/08/07 02:47:37;;;;;;;13.50;7.70;;;;;;;;;;5036044;28;20021;-79
2022/08/07 02:50:03;;;;;;;12.48;7.78;;;;;;;;;;5042939;28;20578;-77
2022/08/07 02:52:31;;;;;;;15.88;8.77;;;;;;;;;;5043360;28;20035;-78
2022/08/07 02:55:00;;;;;;;12.93;8.52;;;;;;;;;;5047242;28;20077;-76
2022/08/07 02:57:26;;;;;;;13.13;8.00;;;;;;;;;;5051954;28;20022;-80
2022/08/07 02:59:53;;;;;;;12.95;7.82;;;;;;;;;;5050816;28;20462;-79
2022/08/07 03:02:19;;;;;;;15.50;8.82;;;;;;;;;;5053896;28;20098;-77
2022/08/07 03:04:46;;;;;;;13.85;8.35;;;;;;;;;;5056225;28;20014;-79
2022/08/07 03:07:12;;;;;;;14.82;9.30;;;;;;;;;;5057141;28;20033;-77
2022/08/07 03:09:39;;;;;;;14.50;9.20;;;;;;;;;;5054969;28;20052;-79
2022/08/07 03:12:06;;;;;;;17.75;10.10;;;;;;;;;;5056963;28;20018;-76
2022/08/07 03:14:35;;;;;;;14.05;9.65;;;;;;;;;;5056111;28;20037;-78
2022/08/07 03:17:01;;;;;;;17.83;10.23;;;;;;;;;;5054667;28;20093;-77
2022/08/07 03:19:27;;;;;;;14.35;9.50;;;;;;;;;;5049859;28;20060;-77
2022/08/07 03:21:53;;;;;;;14.43;8.23;;;;;;;;;;5047828;28;20029;-77
2022/08/07 03:24:19;;;;;;;12.73;7.97;;;;;;;;;;5041675;28;20066;-78
2022/08/07 03:26:49;;;;;;;12.90;8.32;;;;;;;;;;5057251;28;20021;-77
2022/08/07 03:29:15;;;;;;;14.18;9.88;;;;;;;;;;5044718;28;20029;-76
2022/08/07 03:31:41;;;;;;;16.90;8.25;;;;;;;;;;5039627;28;20116;-77
2022/08/07 03:34:09;;;;;;;14.70;8.50;;;;;;;;;;5039701;28;20083;-77
2022/08/07 03:36:36;;;;;;;12.13;8.70;;;;;;;;;;5035064;28;20033;-76
2022/08/07 03:39:04;;;;;;;12.25;7.80;;;;;;;;;;5043777;28;20026;-76
2022/08/07 03:41:31;;;;;;;13.65;8.23;;;;;;;;;;5042562;28;20028;-78
2022/08/07 03:43:57;;;;;;;12.05;8.02;;;;;;;;;;5039933;28;20030;-77
2022/08/07 03:46:23;;;;;;;15.43;9.55;;;;;;;;;;5035537;28;20517;-77
2022/08/07 03:48:50;;;;;;;12.68;8.50;;;;;;;;;;5042525;28;20363;-77
2022/08/07 03:51:17;;;;;;;14.98;9.65;;;;;;;;;;5047958;28;20025;-77
2022/08/07 03:53:43;;;;;;;12.77;8.48;;;;;;;;;;5049249;28;20026;-78
2022/08/07 03:56:09;;;;;;;14.40;8.77;;;;;;;;;;5046158;28;20057;-77
2022/08/07 03:58:36;;;;;;;12.73;8.20;;;;;;;;;;5077784;22;20037;-75
2022/08/07 04:01:03;;;;;;;14.35;8.77;;;;;;;;;;5068715;28;20024;-76
2022/08/07 04:03:29;;;;;;;12.98;8.50;;;;;;;;;;5089136;28;20032;-74
2022/08/07 04:05:55;;;;;;;12.57;8.43;;;;;;;;;;5077251;28;20036;-73
2022/08/07 04:08:21;;;;;;;16.52;9.77;;;;;;;;;;5073429;28;20020;-75
2022/08/07 04:10:48;;;;;;;15.25;9.02;;;;;;;;;;5073865;28;20250;-75
2022/08/07 04:13:14;;;;;;;12.75;8.73;;;;;;;;;;5073281;28;20036;-74
2022/08/07 04:15:40;;;;;;;17.08;9.15;;;;;;;;;;5073574;28;20025;-73
2022/08/07 04:18:06;;;;;;;13.35;8.18;;;;;;;;;;5055331;28;20045;-73
2022/08/07 04:20:32;;;;;;;13.80;9.35;;;;;;;;;;5073106;28;20094;-74
2022/08/07 04:22:58;;;;;;;16.00;9.43;;;;;;;;;;5055267;28;20021;-74
2022/08/07 04:25:25;;;;;;;13.52;9.00;;;;;;;;;;5073370;28;20020;-74
2022/08/07 04:27:51;;;;;;;14.75;10.02;;;;;;;;;;5055801;28;20025;-74
2022/08/07 04:30:17;;;;;;;14.18;9.18;;;;;;;;;;5073139;28;20028;-74
2022/08/07 04:32:43;;;;;;;14.55;9.10;;;;;;;;;;5072852;28;20025;-75
2022/08/07 04:35:09;;;;;;;16.63;8.88;;;;;;;;;;5073188;28;20020;-75
2022/08/07 04:37:35;;;;;;;16.00;9.20;;;;;;;;;;5055008;28;20029;-74
2022/08/07 04:40:02;;;;;;;17.70;8.75;;;;;;;;;;5074646;28;20307;-73
2022/08/07 04:42:30;;;;;;;17.27;9.07;;;;;;;;;;5055193;28;20035;-74
2022/08/07 04:44:57;;;;;;;13.82;8.63;;;;;;;;;;5074367;28;20103;-74
2022/08/07 04:47:37;;;;;;;15.98;9.23;;;;;;;;;;5073345;28;20025;-73
2022/08/07 04:50:08;;;;;;;16.35;10.30;;;;;;;;;;5074052;28;20094;-75
2022/08/07 04:52:46;;;;;;;18.30;9.40;;;;;;;;;;5075483;28;20454;-74
2022/08/07 04:55:12;;;;;;;15.73;8.90;;;;;;;;;;5056297;28;20024;-74
2022/08/07 04:57:54;;;;;;;13.73;8.95;;;;;;;;;;5056484;28;20078;-76
2022/08/07 05:00:31;;;;;;;16.45;9.23;;;;;;;;;;5073415;28;20033;-76
2022/08/07 05:03:10;;;;;;;13.88;8.05;;;;;;;;;;5073346;28;20331;-75
2022/08/07 05:05:44;;;;;;;12.80;8.52;;;;;;;;;;5074538;28;20149;-75
2022/08/07 05:08:10;;;;;;;;;;;;;;;;;;5073218;28;20028;-76
2022/08/07 05:10:45;;;;;;;14.10;7.93;;;;;;;;;;5072703;28;19904;-73
2022/08/07 05:13:11;;;;;;;;;;;;;;;;;;5072088;28;20461;-75
2022/08/07 05:15:38;;;;;;;13.80;9.25;;;;;;;;;;5071296;28;19904;-75
2022/08/07 05:18:09;;;;;;;16.63;9.05;;;;;;;;;;5071261;28;20052;-74
2022/08/07 05:20:39;;;;;;;13.60;8.98;;;;;;;;;;5071786;28;20458;-75
2022/08/07 05:23:10;;;;;;;13.93;8.60;;;;;;;;;;5072681;28;20077;-74
2022/08/07 05:25:37;;;;;;;13.15;8.25;;;;;;;;;;5072511;28;20124;-75
2022/08/07 05:28:03;;;;;;;20.70;11.52;;;;;;;;;;5073505;28;20528;-73
2022/08/07 05:30:30;;;;;;;16.88;9.93;;;;;;;;;;5072463;28;20024;-75
2022/08/07 05:32:56;;;;;;;16.65;9.07;;;;;;;;;;5072100;28;20029;-73
2022/08/07 05:35:23;;;;;;;15.50;9.77;;;;;;;;;;5071572;28;20425;-73
2022/08/07 05:37:50;;;;;;;15.57;9.35;;;;;;;;;;5072034;28;20025;-75
2022/08/07 05:40:16;;;;;;;15.10;9.98;;;;;;;;;;5057441;28;20111;-76
2022/08/07 05:42:42;;;;;;;16.58;10.35;;;;;;;;;;5076357;28;20025;-74
2022/08/07 05:45:09;;;;;;;21.73;10.30;;;;;;;;;;5075495;28;20032;-74
2022/08/07 05:47:36;;;;;;;19.25;11.18;;;;;;;;;;5058085;28;20025;-75
2022/08/07 05:50:02;;;;;;;24.48;11.88;;;;;;;;;;5077636;28;20027;-76
2022/08/07 05:52:28;;;;;;;20.67;11.70;;;;;;;;;;5076495;28;20369;-76
2022/08/07 05:54:54;;;;;;;18.15;11.60;;;;;;;;;;5058236;28;20074;-75
2022/08/07 05:57:20;;;;;;;20.13;11.32;;;;;;;;;;5076153;28;20385;-74
2022/08/07 05:59:47;;;;;;;18.73;11.40;;;;;;;;;;5076696;28;20051;-76
2022/08/07 06:02:14;;;;;;;18.00;10.77;;;;;;;;;;5076390;28;20032;-74
2022/08/07 06:04:42;;;;;;;19.70;10.40;;;;;;;;;;5076278;28;20033;-75
2022/08/07 06:07:08;;;;;;;12.93;8.70;;;;;;;;;;5077191;28;20024;-75
2022/08/07 06:09:34;;;;;;;18.63;8.98;;;;;;;;;;5076554;28;20385;-78
2022/08/07 06:12:01;;;;;;;15.15;8.80;;;;;;;;;;5076188;28;20029;-74
2022/08/07 06:14:27;;;;;;;14.07;8.75;;;;;;;;;;5077463;28;20017;-77
2022/08/07 06:16:53;;;;;;;11.30;7.60;;;;;;;;;;5066973;28;20027;-74
2022/08/07 06:19:19;;;;;;;12.45;8.55;;;;;;;;;;5058628;28;20385;-74
2022/08/07 06:21:45;;;;;;;14.95;7.80;;;;;;;;;;5078776;28;20095;-76
2022/08/07 06:24:12;;;;;;;17.95;7.75;;;;;;;;;;5085019;28;20024;-74
2022/08/07 06:26:41;;;;;;;17.48;7.25;;;;;;;;;;5082938;28;20039;-76
2022/08/07 06:29:07;;;;;;;14.55;7.20;;;;;;;;;;5083780;28;20028;-76
2022/08/07 06:31:34;;;;;;;14.85;7.13;;;;;;;;;;5059571;28;20090;-77
2022/08/07 06:34:00;;;;;;;14.65;6.40;;;;;;;;;;5076578;28;20161;-76
2022/08/07 06:36:26;;;;;;;10.45;6.55;;;;;;;;;;5058756;28;20017;-77
2022/08/07 06:38:53;;;;;;;12.43;7.07;;;;;;;;;;5058293;28;20027;-74
2022/08/07 06:41:28;;;;;;;11.70;7.10;;;;;;;;;;5075460;28;20059;-75
2022/08/07 06:43:54;;;;;;;11.77;6.63;;;;;;;;;;5057408;28;20035;-72
2022/08/07 06:46:21;;;;;;;12.05;6.28;;;;;;;;;;5075316;28;20025;-74
2022/08/07 06:48:47;;;;;;;13.18;6.30;;;;;;;;;;5075154;28;20411;-75
2022/08/07 06:51:15;;;;;;;9.85;5.93;;;;;;;;;;5076184;28;20056;-74
2022/08/07 06:53:41;;;;;;;12.68;6.28;;;;;;;;;;5055897;28;20099;-74
2022/08/07 06:56:07;;;;;;;11.15;6.13;;;;;;;;;;5075289;28;20604;-75
2022/08/07 06:58:34;;;;;;;15.82;6.13;;;;;;;;;;5076967;28;20174;-75
2022/08/07 07:01:02;;;;;;;8.95;5.50;;;;;;;;;;5080875;28;20035;-74
2022/08/07 07:03:28;;;;;;;14.18;5.95;;;;;;;;;;5075383;28;20051;-73
2022/08/07 07:05:54;;;;;;;11.00;5.93;;;;;;;;;;5056888;28;20054;-73
2022/08/07 07:08:24;;;;;;;16.38;6.28;;;;;;;;;;5075222;28;20029;-74
2022/08/07 07:10:50;;;;;;;18.90;6.78;;;;;;;;;;5074758;28;20099;-72
2022/08/07 07:13:18;;;;;;;11.15;5.85;;;;;;;;;;5074578;28;20029;-73
2022/08/07 07:15:47;;;;;;;11.77;6.50;;;;;;;;;;5074073;28;20048;-74
2022/08/07 07:18:22;;;;;;;11.52;6.30;;;;;;;;;;5074763;28;20056;-73
2022/08/07 07:20:47;;;;;;;;;;;;;;;;;;5074979;28;20527;-74
2022/08/07 07:23:14;;;;;;;11.80;6.47;;;;;;;;;;5074689;28;19912;-74
2022/08/07 07:25:41;;;;;;;13.13;5.85;;;;;;;;;;5074468;28;20046;-75
2022/08/07 07:28:16;;;;;;;14.18;6.15;;;;;;;;;;5074852;28;20029;-77
2022/08/07 07:30:45;;;;;;;9.27;6.03;;;;;;;;;;5073114;28;20077;-77
2022/08/07 07:33:13;;;;;;;9.98;5.93;;;;;;;;;;5076964;28;20146;-75
2022/08/07 07:35:41;;;;;;;12.10;6.47;;;;;;;;;;5073906;28;20025;-75
2022/08/07 07:38:07;;;;;;;12.52;5.68;;;;;;;;;;5056320;28;20500;-74
2022/08/07 07:40:34;;;;;;;13.50;6.28;;;;;;;;;;5056448;28;20033;-75
2022/08/07 07:43:02;;;;;;;10.15;5.82;;;;;;;;;;5074750;28;20033;-74
2022/08/07 07:45:28;;;;;;;9.32;6.03;;;;;;;;;;5074194;28;20107;-75
2022/08/07 07:47:56;;;;;;;11.65;6.30;;;;;;;;;;5075009;28;20040;-75
2022/08/07 07:50:22;;;;;;;10.98;5.88;;;;;;;;;;5075217;28;20035;-75
2022/08/07 07:52:49;;;;;;;9.88;5.60;;;;;;;;;;5075322;28;20512;-76
2022/08/07 07:55:17;;;;;;;13.07;5.80;;;;;;;;;;5084121;28;20490;-74
2022/08/07 07:57:44;;;;;;;11.75;6.15;;;;;;;;;;5091728;28;20028;-73
2022/08/07 08:00:11;;;;;;;12.85;6.13;;;;;;;;;;5076170;28;20075;-77
2022/08/07 08:02:37;;;;;;;12.85;6.05;;;;;;;;;;5074890;28;20025;-76
2022/08/07 08:05:04;;;;;;;9.05;5.50;;;;;;;;;;5076123;28;20036;-74
2022/08/07 08:07:32;;;;;;;12.02;5.70;;;;;;;;;;5073926;28;20428;-77
2022/08/07 08:09:58;;;;;;;10.48;5.70;;;;;;;;;;5075158;28;20028;-75
2022/08/07 08:12:24;;;;;;;10.18;5.95;;;;;;;;;;5078213;28;20025;-77
2022/08/07 08:14:50;;;;;;;8.95;5.32;;;;;;;;;;5078542;28;20036;-75
2022/08/07 08:17:18;;;;;;;9.90;5.75;;;;;;;;;;5075916;28;20078;-75
2022/08/07 08:19:44;;;;;;;10.57;5.85;;;;;;;;;;5072153;28;20027;-75
2022/08/07 08:27:42;;;;;;;9.82;6.05;;;;;;;;;;5071412;28;20044;-76
2022/08/07 08:30:09;;;;;;;10.18;5.00;;;;;;;;;;5071812;28;20374;-75
2022/08/07 08:32:38;;;;;;;7.95;5.25;;;;;;;;;;5072890;28;20060;-75
2022/08/07 08:35:05;;;;;;;7.13;4.65;;;;;;;;;;5073094;28;20024;-74
2022/08/07 08:37:32;;;;;;;8.75;6.25;;;;;;;;;;5074064;28;20473;-73
2022/08/07 08:39:58;;;;;;;12.52;6.25;;;;;;;;;;5079817;28;20021;-73
2022/08/07 08:42:57;;;;;;;11.52;6.00;;;;;;;;;;5082986;28;20032;-74
2022/08/07 08:45:31;;;;;;;7.88;5.40;;;;;;;;;;5027552;28;20669;-73
2022/08/07 08:48:22;;;;;;;7.85;5.35;;;;;;;;;;5072449;28;20020;-75
2022/08/07 08:50:50;;;;;;;9.38;5.63;;;;;;;;;;5072304;28;20063;-77
2022/08/07 08:53:38;;;;;;;7.88;5.00;;;;;;;;;;5054094;28;20104;-75
2022/08/07 08:56:06;;;;;;;10.50;5.75;;;;;;;;;;5074181;28;20020;-75
2022/08/07 08:58:51;;;;;;;14.60;6.15;;;;;;;;;;5056055;28;20035;-75
2022/08/07 09:01:20;;;;;;;10.40;6.30;;;;;;;;;;5072155;28;20020;-74
2022/08/07 09:04:05;;;;;;;10.48;5.13;;;;;;;;;;5072324;28;20056;-75
2022/08/07 09:06:50;;;;;;;6.47;4.20;;;;;;;;;;5071871;28;20025;-76
2022/08/07 09:09:22;;;;;;;7.93;4.00;;;;;;;;;;5072223;28;20040;-75
2022/08/07 09:12:00;;;;;;;7.00;4.50;;;;;;;;;;5072181;28;20045;-75
2022/08/07 09:14:29;;;;;;;9.75;4.80;;;;;;;;;;5073860;28;20351;-77
2022/08/07 09:17:21;;;;;;;6.82;4.93;;;;;;;;;;5073649;28;20350;-74
2022/08/07 09:20:16;;;;;;;11.15;4.80;;;;;;;;;;5077736;28;20005;-72
2022/08/07 09:22:55;;;;;;;8.38;4.63;;;;;;;;;;5073945;28;20028;-73
2022/08/07 09:25:34;;;;;;;9.13;5.15;;;;;;;;;;5083681;28;20021;-74
2022/08/07 09:28:04;;;;;;;8.10;4.90;;;;;;;;;;5083356;28;20044;-73
2022/08/07 09:30:46;;;;;;;8.95;4.95;;;;;;;;;;5085439;28;20024;-73
2022/08/07 09:33:16;;;;;;;6.65;4.93;;;;;;;;;;5059795;28;20032;-74
2022/08/07 09:35:45;;;;;;;8.43;4.75;;;;;;;;;;5071845;28;20043;-74
2022/08/07 09:38:18;;;;;;;7.72;5.20;;;;;;;;;;5072006;28;20017;-74
2022/08/07 09:41:07;;;;;;;11.38;5.30;;;;;;;;;;5073743;28;20031;-75
2022/08/07 09:43:37;;;;;;;8.00;5.03;;;;;;;;;;5055398;28;20025;-76
2022/08/07 09:46:17;;;;;;;7.38;4.60;;;;;;;;;;5073178;28;20055;-74
2022/08/07 09:48:46;;;;;;;7.65;4.82;;;;;;;;;;5072645;28;20226;-74
2022/08/07 09:51:24;;;;;;;8.45;4.70;;;;;;;;;;5073830;28;20029;-73
2022/08/07 09:53:51;;;;;;;5.47;3.85;;;;;;;;;;5074352;28;20024;-74
2022/08/07 09:56:20;;;;;;;7.00;4.30;;;;;;;;;;5075025;28;20028;-75
2022/08/07 09:59:05;;;;;;;10.68;4.95;;;;;;;;;;5074775;28;20028;-74
2022/08/07 10:01:31;;;;;;;7.80;4.78;;;;;;;;;;5055644;28;20024;-74
2022/08/07 10:04:17;;;;;;;7.05;4.22;;;;;;;;;;5073114;28;20388;-74
2022/08/07 10:07:01;;;;;;;7.97;4.97;;;;;;;;;;5074456;28;20032;-73
2022/08/07 10:09:52;;;;;;;9.13;4.45;;;;;;;;;;5077008;28;20029;-76
2022/08/07 10:12:36;;;;;;;7.20;4.50;;;;;;;;;;5071815;28;20384;-75
2022/08/07 10:15:08;;;;;;;7.43;5.10;;;;;;;;;;5072515;28;20021;-75
2022/08/07 10:17:52;;;;;;;10.02;5.20;;;;;;;;;;5071267;28;20032;-75
2022/08/07 10:20:26;;;;;;;8.30;5.18;;;;;;;;;;5072823;28;20076;-75
2022/08/07 10:23:11;;;;;;;11.90;5.32;;;;;;;;;;5074717;28;20060;-75
2022/08/07 10:25:56;;;;;;;6.65;4.15;;;;;;;;;;5073012;28;20031;-75
2022/08/07 10:28:47;;;;;;;7.93;4.70;;;;;;;;;;5073859;28;20063;-75
2022/08/07 10:31:32;;;;;;;6.25;4.60;;;;;;;;;;5075037;28;20034;-75
2022/08/07 10:33:58;;;;;;;;;;;;;;;;;;5076708;28;20080;-76
2022/08/07 10:36:38;;;;;;;9.85;4.57;;;;;;;;;;5062336;28;19955;-77
2022/08/07 10:39:22;;;;;;;7.57;4.28;;;;;;;;;;5076685;28;20038;-74
2022/08/07 10:41:54;;;;;;;10.23;4.00;;;;;;;;;;5076761;28;20234;-74
2022/08/07 10:44:37;;;;;;;8.63;3.70;;;;;;;;;;5076327;28;20032;-75
2022/08/07 10:47:18;;;;;;;12.75;5.00;;;;;;;;;;5076602;28;20093;-74
2022/08/07 10:49:48;;;;;;;9.63;4.30;;;;;;;;;;5078234;28;20338;-74
2022/08/07 10:52:24;;;;;;;8.95;4.00;;;;;;;;;;5075397;28;20043;-73
2022/08/07 10:54:56;;;;;;;8.32;3.83;;;;;;;;;;5074889;28;20078;-76
2022/08/07 10:57:32;;;;;;;7.68;3.75;;;;;;;;;;5057107;28;20045;-74
2022/08/07 11:00:06;;;;;;;5.78;3.70;;;;;;;;;;5074625;28;20032;-74
2022/08/07 11:02:44;;;;;;;8.23;3.70;;;;;;;;;;5076732;28;20051;-75
2022/08/07 11:05:22;;;;;;;10.10;4.10;;;;;;;;;;5059716;28;20064;-73
2022/08/07 11:08:06;;;;;;;6.60;3.60;;;;;;;;;;5075863;28;20050;-74
2022/08/07 11:10:32;;;;;;;;;;;;;;;;;;5075406;28;20024;-75
2022/08/07 11:13:02;;;;;;;6.50;3.55;;;;;;;;;;5074403;28;19962;-73
2022/08/07 11:15:29;;;;;;;5.07;3.60;;;;;;;;;;5055402;28;20025;-74
2022/08/07 11:18:14;;;;;;;4.95;3.15;;;;;;;;;;5076048;28;20025;-75
2022/08/07 11:20:56;;;;;;;5.43;3.55;;;;;;;;;;5075241;28;20017;-74
2022/08/07 11:23:35;;;;;;;3.92;3.10;;;;;;;;;;5077459;28;20028;-75
2022/08/07 11:26:07;;;;;;;6.38;3.50;;;;;;;;;;5076664;28;20025;-74
2022/08/07 11:28:35;;;;;;;8.43;3.55;;;;;;;;;;5075356;28;20025;-75
2022/08/07 11:31:07;;;;;;;6.00;3.60;;;;;;;;;;5074595;28;20017;-74
2022/08/07 11:33:42;;;;;;;9.95;4.50;;;;;;;;;;5074501;28;20031;-75
2022/08/07 11:36:27;;;;;;;7.93;4.13;;;;;;;;;;5074750;28;20020;-73
2022/08/07 11:38:53;;;;;;;;;;;;;;;;;;5075300;28;20016;-75
2022/08/07 11:41:22;;;;;;;5.82;3.53;;;;;;;;;;5073673;28;19905;-74
2022/08/07 11:43:48;;;;;;;7.20;4.05;;;;;;;;;;5074372;28;20021;-75
2022/08/07 11:46:14;;;;;;;8.10;3.67;;;;;;;;;;5056400;28;20105;-75
2022/08/07 11:48:40;;;;;;;5.85;3.30;;;;;;;;;;5074445;28;20020;-76
2022/08/07 11:51:25;;;;;;;4.53;3.22;;;;;;;;;;5074245;28;20095;-74
2022/08/07 11:54:04;;;;;;;8.15;3.95;;;;;;;;;;5074410;28;20436;-74
2022/08/07 11:56:36;;;;;;;4.97;3.42;;;;;;;;;;5074119;28;20024;-75
2022/08/07 11:59:15;;;;;;;6.22;3.50;;;;;;;;;;5074184;28;20047;-76
2022/08/07 12:01:56;;;;;;;7.65;3.58;;;;;;;;;;5077512;28;20069;-74
2022/08/07 12:04:31;;;;;;;6.18;3.72;;;;;;;;;;5078999;28;20020;-75
2022/08/07 12:07:14;;;;;;;5.68;3.58;;;;;;;;;;5077343;28;20040;-75
2022/08/07 12:10:02;;;;;;;5.22;3.28;;;;;;;;;;5073561;28;20020;-76
2022/08/07 12:12:35;;;;;;;7.53;3.50;;;;;;;;;;5073779;28;20354;-76
2022/08/07 12:15:10;;;;;;;6.00;3.47;;;;;;;;;;5073471;28;20044;-74
2022/08/07 12:17:41;;;;;;;9.93;3.92;;;;;;;;;;5075160;28;20021;-74
2022/08/07 12:20:26;;;;;;;6.53;3.80;;;;;;;;;;5073666;28;20035;-74
2022/08/07 12:22:52;;;;;;;;;;;;;;;;;;5076458;28;20026;-75
2022/08/07 12:25:52;;;;;;;7.75;3.28;;;;;;;;;;5072719;28;19909;-76
2022/08/07 12:28:22;;;;;;;7.47;3.58;;;;;;;;;;5073748;28;20024;-77
2022/08/07 12:30:50;;;;;;;7.60;3.25;;;;;;;;;;5075028;28;20029;-76
2022/08/07 12:33:18;;;;;;;6.10;3.33;;;;;;;;;;5078467;28;20021;-75
2022/08/07 12:35:45;;;;;;;7.45;3.45;;;;;;;;;;5076147;28;20082;-75
2022/08/07 12:38:12;;;;;;;14.48;10.32;;;;;;;;;;5073623;28;20107;-75
2022/08/07 12:40:39;;;;;;;6.00;3.60;;;;;;;;;;5075182;28;20029;-76
2022/08/07 12:43:07;;;;;;;5.20;3.28;;;;;;;;;;5074854;28;20052;-76
2022/08/07 12:45:36;;;;;;;6.03;2.92;;;;;;;;;;5076916;28;20043;-74
2022/08/07 12:48:38;;;;;;;10.18;3.38;;;;;;;;;;5077259;28;20028;-76
2022/08/07 12:51:11;;;;;;;8.15;4.20;;;;;;;;;;5009170;28;20029;-74
2022/08/07 12:53:51;;;;;;;6.43;3.25;;;;;;;;;;5076452;28;20036;-76
2022/08/07 12:56:30;;;;;;;6.40;3.25;;;;;;;;;;5072960;28;20078;-75
2022/08/07 12:58:57;;;;;;;4.45;3.08;;;;;;;;;;5073214;28;20071;-75
2022/08/07 13:01:52;;;;;;;6.07;3.20;;;;;;;;;;5073226;28;20029;-75
2022/08/07 13:04:25;;;;;;;5.07;2.90;;;;;;;;;;5055869;28;20385;-76
2022/08/07 13:07:03;;;;;;;5.30;2.90;;;;;;;;;;5076110;28;20024;-75
2022/08/07 13:09:47;;;;;;;5.50;3.03;;;;;;;;;;5078136;28;20535;-76
2022/08/07 13:12:34;;;;;;;8.82;3.42;;;;;;;;;;5073174;28;20059;-76
2022/08/07 13:15:23;;;;;;;3.70;2.40;;;;;;;;;;5041443;28;20033;-75
2022/08/07 13:18:01;;;;;;;5.68;3.92;;;;;;;;;;5064518;28;20396;-76
2022/08/07 13:20:34;;;;;;;6.03;3.20;;;;;;;;;;5072463;28;20116;-76
2022/08/07 13:23:06;;;;;;;6.85;3.35;;;;;;;;;;5072660;28;20043;-75
2022/08/07 13:25:38;;;;;;;6.82;3.70;;;;;;;;;;5078450;28;20070;-77
2022/08/07 13:28:06;;;;;;;6.80;3.90;;;;;;;;;;5074669;28;20028;-73
2022/08/07 13:30:34;;;;;;;4.90;3.25;;;;;;;;;;5072645;28;20027;-75
2022/08/07 13:33:00;;;;;;;7.07;3.85;;;;;;;;;;5072779;28;20037;-76
2022/08/07 13:35:31;;;;;;;4.57;3.25;;;;;;;;;;5054514;28;20016;-76
2022/08/07 13:38:07;;;;;;;5.25;3.10;;;;;;;;;;5072732;28;20528;-74
2022/08/07 13:40:36;;;;;;;6.93;3.70;;;;;;;;;;5055874;28;20028;-75
2022/08/07 13:43:05;;;;;;;6.45;3.42;;;;;;;;;;5073392;28;20108;-75
2022/08/07 13:45:32;;;;;;;6.43;3.22;;;;;;;;;;5073852;28;20107;-75
2022/08/07 13:47:58;;;;;;;6.15;2.92;;;;;;;;;;5073545;28;20040;-74
2022/08/07 13:50:25;;;;;;;4.88;3.20;;;;;;;;;;5054602;28;20055;-74
2022/08/07 13:52:52;;;;;;;4.18;2.90;;;;;;;;;;5072725;28;20024;-74
2022/08/07 13:55:22;;;;;;;4.85;3.05;;;;;;;;;;5073140;28;20155;-75
2022/08/07 14:00:53;;;;;;;5.00;3.33;;;;;;;;;;5072413;28;20036;-74
2022/08/07 14:03:20;;;;;;;6.97;3.53;;;;;;;;;;5073486;28;20021;-75
2022/08/07 14:05:47;;;;;;;5.13;3.38;;;;;;;;;;5075657;28;20101;-75
2022/08/07 14:08:14;;;;;;;6.80;3.25;;;;;;;;;;5075670;28;20512;-74
2022/08/07 14:10:41;;;;;;;4.93;3.10;;;;;;;;;;5076277;28;20024;-75
2022/08/07 14:13:09;;;;;;;7.45;3.20;;;;;;;;;;5076665;28;20036;-76
2022/08/07 14:15:38;;;;;;;7.65;3.22;;;;;;;;;;5077069;28;20379;-76
2022/08/07 14:18:07;;;;;;;5.60;2.97;;;;;;;;;;5086729;28;20047;-74
2022/08/07 14:20:36;;;;;;;5.70;3.05;;;;;;;;;;5090048;28;20076;-74
2022/08/07 14:23:07;;;;;;;4.35;2.78;;;;;;;;;;5073541;28;20074;-74
2022/08/07 14:25:33;;;;;;;8.63;3.38;;;;;;;;;;5073526;28;20112;-76
2022/08/07 14:28:03;;;;;;;4.40;3.05;;;;;;;;;;5075586;28;20103;-75
2022/08/07 14:30:29;;;;;;;4.18;2.47;;;;;;;;;;5076720;28;20020;-77
2022/08/07 14:33:00;;;;;;;7.47;2.97;;;;;;;;;;5077743;28;20024;-75
2022/08/07 14:35:29;;;;;;;5.22;2.92;;;;;;;;;;5076662;28;20428;-75
2022/08/07 14:37:56;;;;;;;3.55;2.40;;;;;;;;;;5076929;28;20062;-75
2022/08/07 14:40:23;;;;;;;6.70;3.17;;;;;;;;;;5058848;28;20043;-73
2022/08/07 14:42:55;;;;;;;4.53;2.95;;;;;;;;;;5075401;28;20078;-76
2022/08/07 14:45:21;;;;;;;6.07;3.25;;;;;;;;;;5075424;28;20052;-74
2022/08/07 14:47:48;;;;;;;6.55;3.50;;;;;;;;;;5074971;28;20021;-76
2022/08/07 14:50:17;;;;;;;5.18;3.03;;;;;;;;;;5076372;28;20032;-77
2022/08/07 14:52:44;;;;;;;7.32;3.60;;;;;;;;;;5075944;28;20029;-76
2022/08/07 14:55:11;;;;;;;5.68;3.60;;;;;;;;;;5075482;28;20021;-77
2022/08/07 14:57:38;;;;;;;5.75;3.08;;;;;;;;;;5077031;28;20066;-77
2022/08/07 15:00:06;;;;;;;6.25;3.50;;;;;;;;;;5058829;28;20085;-77
2022/08/07 15:02:33;;;;;;;5.32;3.47;;;;;;;;;;5076697;28;20032;-77